Dubuque Regional Airport Dubuque US
ICAO: KDBQ
IATA: DBQ
Category: Large
Scheduled Services: Yes

Elevation: 1077 ft
TransAlt. 18000 ft.

Airport Communications:
ATIS:127.25
CHICAGO CNTR:127
CTAF:119.5
GND:121.8
FORT DODGE RDO:122.05
TWR:119.5
UNICOM:122.95

KDBQ Zoom In..

Runways:

(A) RW 13 length 6502 ft width 100 ft
---- / hdg 132

(B) RW 18 length 6327 ft width 150 ft
---- / hdg 177

(C) RW 31 length 6502 ft width 100 ft
ILS 108.70 / hdg 312

(D) RW 36 length 6327 ft width 150 ft
ILS 110.90 / hdg 357

Location; KDBQ
Day. 22 / Time. 03.53 Zulu
* Altimeter: 29.80
* Temperature: 02° c. 35.6°f.
* Wind from: 040° Speed 07 kn.
Dewpoint: 02° c.
Visibility: 1/4 Statute Miles.
Conditions: Fog.

KDBQ 220353Z AUTO 04007KT 1/4SM R36/1000V1200FT FG VV001 02/02 A2980 RMK AO2 UPB0258E53 SLP100 P0001 T00220017


Wind From 040°
Speed 07 kn.

jpsM music video
CHECK IT OUT

jpsM - It Moves..

 
jpsmedia.com for Web Design  worldairports.se 2018   terms of use